This is the latest recevied weather packets stored in our database for station/object WK1F-2. If no packets are shown the sender has not sent any weather packets the latest 1 day(s).
| Time | Temp. | Humidity | Pressure | Rain* | Wind** | Luminosity | Snow |
|---|---|---|---|---|---|---|---|
| 1778018246 | 23.89° C | 56% | 1015.1 hPa | 0 mm | 4.02 m/s, 111° | - | - |
| 1778017946 | 23.89° C | 54% | 1015.2 hPa | 0 mm | 4.02 m/s, 83° | - | - |
| 1778017646 | 23.89° C | 54% | 1015.2 hPa | 0 mm | 4.92 m/s, 118° | - | - |
| 1778017346 | 23.89° C | 54% | 1015.3 hPa | 0 mm | 4.92 m/s, 144° | - | - |
| 1778017045 | 23.89° C | 54% | 1015.2 hPa | 0 mm | 0.89 m/s, 213° | - | - |
| 1778016745 | 23.89° C | 53% | 1015.3 hPa | 0 mm | 6.26 m/s, 117° | - | - |
| 1778016445 | 24.44° C | 53% | 1015.3 hPa | 0 mm | 4.47 m/s, 145° | - | - |
| 1778016145 | 24.44° C | 53% | 1015.3 hPa | 0 mm | 3.58 m/s, 176° | - | - |
| 1778015845 | 24.44° C | 53% | 1015.4 hPa | 0 mm | 2.68 m/s, 120° | - | - |
| 1778015545 | 24.44° C | 54% | 1015.3 hPa | 0 mm | 4.47 m/s, 93° | - | - |
| 1778015245 | 24.44° C | 53% | 1015.4 hPa | 0 mm | 3.58 m/s, 118° | - | - |
| 1778014945 | 24.44° C | 52% | 1015.4 hPa | 0 mm | 4.02 m/s, 76° | - | - |
| 1778014645 | 24.44° C | 53% | 1015.3 hPa | 0 mm | 4.02 m/s, 86° | - | - |
| 1778014346 | 24.44° C | 52% | 1015.3 hPa | 0 mm | 3.58 m/s, 101° | - | - |
| 1778014045 | 24.44° C | 52% | 1015.4 hPa | 0 mm | 4.02 m/s, 98° | - | - |
| 1778013745 | 24.44° C | 52% | 1015.5 hPa | 0 mm | 4.02 m/s, 105° | - | - |
| 1778013445 | 24.44° C | 52% | 1015.5 hPa | 0 mm | 3.13 m/s, 182° | - | - |
| 1778013145 | 24.44° C | 52% | 1015.6 hPa | 0 mm | 2.68 m/s, 122° | - | - |
| 1778012845 | 24.44° C | 50% | 1015.7 hPa | 0 mm | 4.02 m/s, 84° | - | - |
| 1778012545 | 24.44° C | 52% | 1015.7 hPa | 0 mm | 2.24 m/s, 136° | - | - |
| 1778012245 | 25° C | 49% | 1015.7 hPa | 0 mm | 4.47 m/s, 86° | - | - |
| 1778011945 | 25° C | 48% | 1015.9 hPa | 0 mm | 4.92 m/s, 76° | - | - |
| 1778011645 | 25° C | 47% | 1015.9 hPa | 0 mm | 2.68 m/s, 57° | - | - |
| 1778011345 | 25° C | 47% | 1015.9 hPa | 0 mm | 2.24 m/s, 103° | - | - |
| 1778011045 | 25° C | 47% | 1016 hPa | 0 mm | 3.13 m/s, 70° | - | - |
* Rain latest hour (hover to see other rain measurements)
** Current wind speed in m/s (hover to see current wind gust speed)